createdAt,value
2018-09-14T00:01:48.825Z,71.10
2018-09-14T00:04:18.172Z,70.00
2018-09-14T00:06:49.911Z,70.30
2018-09-14T00:09:19.396Z,70.50
2018-09-14T00:11:48.699Z,70.50
2018-09-14T00:14:17.875Z,70.70
2018-09-14T00:16:49.223Z,70.90
2018-09-14T00:19:18.313Z,71.20
2018-09-14T00:21:47.777Z,71.20
2018-09-14T00:24:16.925Z,71.10
2018-09-14T00:26:46.088Z,71.30
2018-09-14T00:29:15.871Z,71.30
2018-09-14T00:31:45.280Z,71.30
2018-09-14T00:34:14.380Z,71.30
2018-09-14T00:36:43.753Z,71.40
2018-09-14T00:39:13.796Z,71.50
2018-09-14T00:41:43.406Z,71.30
2018-09-14T00:44:13.162Z,71.00
2018-09-14T00:46:42.784Z,70.60
2018-09-14T00:49:11.978Z,72.00
2018-09-14T00:51:41.292Z,72.00
2018-09-14T00:54:10.800Z,71.50
2018-09-14T00:56:40.112Z,71.00
2018-09-14T00:59:09.212Z,70.60
2018-09-14T01:01:38.784Z,71.10
2018-09-14T01:04:07.869Z,71.00
2018-09-14T01:06:37.200Z,70.60
2018-09-14T01:09:13.354Z,70.10
2018-09-14T01:11:42.653Z,70.70
2018-09-14T01:14:11.835Z,71.00
2018-09-14T01:16:41.068Z,71.20
2018-09-14T01:19:10.131Z,71.10
2018-09-14T01:21:39.844Z,70.70
2018-09-14T01:24:09.152Z,71.20
2018-09-14T01:26:38.730Z,70.90
2018-09-14T01:29:08.061Z,71.10
2018-09-14T01:31:38.773Z,70.90
2018-09-14T01:34:08.187Z,71.00
2018-09-14T01:36:37.440Z,71.60
2018-09-14T01:39:09.766Z,71.90
2018-09-14T01:41:39.329Z,71.90
2018-09-14T01:44:09.068Z,71.90
2018-09-14T01:46:38.812Z,71.30
2018-09-14T01:49:08.267Z,71.00
2018-09-14T01:51:37.750Z,71.00
2018-09-14T01:54:06.913Z,70.50
2018-09-14T01:56:36.565Z,70.70
2018-09-14T01:59:06.336Z,71.00
2018-09-14T02:01:36.736Z,70.60
2018-09-14T02:04:06.330Z,70.80
2018-09-14T02:06:35.544Z,71.00
2018-09-14T02:09:06.218Z,70.80
2018-09-14T02:11:36.001Z,70.90
2018-09-14T02:14:05.404Z,71.40
2018-09-14T02:16:34.652Z,71.20
2018-09-14T02:19:06.165Z,71.20
2018-09-14T02:21:35.932Z,71.20
2018-09-14T02:24:05.276Z,70.80
2018-09-14T02:26:34.639Z,71.20
2018-09-14T02:29:04.707Z,71.00
2018-09-14T02:31:34.320Z,71.00
2018-09-14T02:34:03.794Z,71.60
2018-09-14T02:36:33.477Z,71.10
2018-09-14T02:39:03.421Z,71.20
2018-09-14T02:41:32.877Z,71.20
2018-09-14T02:44:02.024Z,71.40
2018-09-14T02:46:31.631Z,71.40
2018-09-14T02:49:00.901Z,71.20
2018-09-14T02:51:30.271Z,70.40
2018-09-14T02:53:59.769Z,71.30
2018-09-14T02:56:29.437Z,71.40
2018-09-14T02:58:58.562Z,71.60
2018-09-14T03:01:27.926Z,71.90
2018-09-14T03:03:57.544Z,71.80
2018-09-14T03:06:26.872Z,71.40
2018-09-14T03:08:55.980Z,71.60
2018-09-14T03:11:26.405Z,71.10
2018-09-14T03:13:55.664Z,71.90
2018-09-14T03:16:25.682Z,71.00
2018-09-14T03:18:55.056Z,71.20
2018-09-14T03:21:24.367Z,71.30
2018-09-14T03:23:53.494Z,70.70
2018-09-14T03:26:22.905Z,70.70
2018-09-14T03:28:52.764Z,70.70
2018-09-14T03:31:22.022Z,70.90
2018-09-14T03:33:52.479Z,70.60
2018-09-14T03:36:22.851Z,70.20
2018-09-14T03:38:52.026Z,70.00
2018-09-14T03:41:21.451Z,70.30
2018-09-14T03:43:50.961Z,70.40
2018-09-14T03:46:21.112Z,69.90
2018-09-14T03:48:50.236Z,70.00
2018-09-14T03:51:19.683Z,70.60
2018-09-14T03:53:48.829Z,70.70
2018-09-14T03:56:18.824Z,70.70
2018-09-14T03:58:48.060Z,70.60
2018-09-14T04:01:18.933Z,71.80
2018-09-14T04:03:49.073Z,70.50
2018-09-14T04:06:18.350Z,71.10
2018-09-14T04:08:47.507Z,71.00
2018-09-14T04:11:16.890Z,70.70
2018-09-14T04:13:46.124Z,70.60
2018-09-14T04:16:15.625Z,70.50
2018-09-14T04:18:53.889Z,70.40
2018-09-14T04:21:23.944Z,70.10
2018-09-14T04:23:53.392Z,70.10
2018-09-14T04:26:22.713Z,70.10
2018-09-14T04:28:52.102Z,70.20
2018-09-14T04:31:21.565Z,70.70
2018-09-14T04:33:50.693Z,70.80
2018-09-14T04:36:20.313Z,70.80
2018-09-14T04:38:49.520Z,70.70
2018-09-14T04:41:19.203Z,70.70
2018-09-14T04:43:48.491Z,71.00
2018-09-14T04:46:17.761Z,72.30
2018-09-14T04:48:47.485Z,71.20
2018-09-14T04:51:16.876Z,70.80
2018-09-14T04:53:46.069Z,70.70
2018-09-14T04:56:15.203Z,70.30
2018-09-14T04:58:44.727Z,70.10
2018-09-14T05:01:14.145Z,70.20
2018-09-14T05:03:43.304Z,70.30
2018-09-14T05:06:12.667Z,69.20
2018-09-14T05:08:41.863Z,70.40
2018-09-14T05:11:12.785Z,70.50
2018-09-14T05:13:42.029Z,70.30
2018-09-14T05:16:11.948Z,70.50
2018-09-14T05:18:41.261Z,70.60
2018-09-14T05:21:10.638Z,71.40
2018-09-14T05:23:40.875Z,71.70
2018-09-14T05:26:11.880Z,71.20
2018-09-14T05:28:58.593Z,71.10
2018-09-14T05:31:32.195Z,71.00
2018-09-14T05:34:02.124Z,71.20
2018-09-14T05:36:32.513Z,71.00
2018-09-14T05:39:02.129Z,70.70
2018-09-14T05:41:31.440Z,70.00
2018-09-14T05:44:10.388Z,70.70
2018-09-14T05:46:44.476Z,70.70
2018-09-14T05:49:17.561Z,70.40
2018-09-14T05:51:49.244Z,70.40
2018-09-14T05:54:20.838Z,70.10
2018-09-14T05:56:58.246Z,69.80
2018-09-14T05:59:38.078Z,68.00
2018-09-14T06:02:08.095Z,69.90
2018-09-14T06:04:38.067Z,69.80
2018-09-14T06:07:09.083Z,69.60
2018-09-14T06:09:38.963Z,69.50
2018-09-14T06:12:08.836Z,69.60
2018-09-14T06:14:39.259Z,69.80
2018-09-14T06:17:08.958Z,70.00
2018-09-14T06:19:38.643Z,69.70
2018-09-14T06:22:11.141Z,69.40
2018-09-14T06:24:40.548Z,69.10
2018-09-14T06:27:10.367Z,68.40
2018-09-14T06:29:39.776Z,69.00
2018-09-14T06:32:09.563Z,68.30
2018-09-14T06:34:39.598Z,67.90
2018-09-14T06:37:13.406Z,67.40
2018-09-14T06:39:45.889Z,68.10
2018-09-14T06:42:16.246Z,67.40
2018-09-14T06:44:46.830Z,67.10
2018-09-14T06:47:17.347Z,67.20
2018-09-14T06:49:49.226Z,67.10
2018-09-14T06:52:25.521Z,67.30
2018-09-14T06:54:59.699Z,67.70
2018-09-14T06:57:30.676Z,67.60
2018-09-14T07:00:01.959Z,67.80
2018-09-14T07:02:31.368Z,67.80
2018-09-14T07:05:02.116Z,67.50
2018-09-14T07:07:31.793Z,67.00
2018-09-14T07:10:02.400Z,66.60
2018-09-14T07:12:33.616Z,66.10
2018-09-14T07:15:03.156Z,66.40
2018-09-14T07:17:36.998Z,66.40
2018-09-14T07:20:06.330Z,65.90
2018-09-14T07:22:38.336Z,65.30
2018-09-14T07:25:14.010Z,64.70
2018-09-14T07:27:44.096Z,64.40
2018-09-14T07:30:19.662Z,64.50
2018-09-14T07:32:55.229Z,64.10
2018-09-14T07:35:27.197Z,63.50
2018-09-14T07:37:57.561Z,61.70
2018-09-14T07:40:29.720Z,62.90
2018-09-14T07:43:01.846Z,62.90
2018-09-14T07:45:34.114Z,62.80
2018-09-14T07:48:16.354Z,62.90
2018-09-14T07:50:54.471Z,63.30
2018-09-14T07:53:24.553Z,63.20
2018-09-14T07:56:03.241Z,63.50
2018-09-14T07:58:36.356Z,65.20
2018-09-14T08:01:14.768Z,65.30
2018-09-14T08:03:47.866Z,65.10
2018-09-14T08:06:27.575Z,65.10
2018-09-14T08:09:04.307Z,65.60
2018-09-14T08:12:12.413Z,65.80
2018-09-14T08:14:47.569Z,65.10
2018-09-14T08:17:23.232Z,66.00
2018-09-14T08:19:55.698Z,66.20
2018-09-14T08:22:25.365Z,65.80
2018-09-14T08:25:10.359Z,65.80
2018-09-14T08:27:43.339Z,66.40
2018-09-14T08:30:15.306Z,66.20
2018-09-14T08:32:45.413Z,64.90
2018-09-14T08:35:16.257Z,64.10
2018-09-14T08:37:47.458Z,62.50
2018-09-14T08:40:17.364Z,61.30
2018-09-14T08:42:47.010Z,60.50
2018-09-14T08:45:18.581Z,59.50
2018-09-14T08:47:48.344Z,59.90
2018-09-14T08:50:25.418Z,58.70
2018-09-14T08:52:56.931Z,56.70
2018-09-14T08:55:31.360Z,57.10
2018-09-14T08:58:02.377Z,56.10
2018-09-14T09:00:34.567Z,54.60
2018-09-14T09:03:11.635Z,53.10
2018-09-14T09:05:41.562Z,51.60
2018-09-14T09:08:14.522Z,50.40
2018-09-14T09:10:44.433Z,50.20
2018-09-14T09:13:14.560Z,49.00
2018-09-14T09:15:44.045Z,49.80
2018-09-14T09:18:14.832Z,50.80
2018-09-14T09:20:44.327Z,50.80
2018-09-14T09:23:17.007Z,49.80
2018-09-14T09:25:49.443Z,48.80
2018-09-14T09:28:28.338Z,48.20
2018-09-14T09:31:06.170Z,47.40
2018-09-14T09:33:42.951Z,47.90
2018-09-14T09:36:17.297Z,47.30
2018-09-14T09:38:55.763Z,47.00
2018-09-14T09:41:26.344Z,47.30
2018-09-14T09:44:00.884Z,47.20
2018-09-14T09:46:30.177Z,47.30
2018-09-14T09:48:59.677Z,47.60
2018-09-14T09:51:35.049Z,48.10
2018-09-14T09:54:06.389Z,47.80
2018-09-14T09:56:36.542Z,47.40
2018-09-14T09:59:07.323Z,46.20
2018-09-14T10:03:51.890Z,45.70
2018-09-14T10:06:27.652Z,47.40
2018-09-14T10:09:05.346Z,46.60
2018-09-14T10:11:39.124Z,46.20
2018-09-14T10:14:13.090Z,45.80
2018-09-14T10:17:14.764Z,44.60
2018-09-14T10:19:56.776Z,45.10
2018-09-14T10:22:30.284Z,44.10
2018-09-14T10:25:01.417Z,44.80
2018-09-14T10:27:41.307Z,47.10
2018-09-14T10:30:13.373Z,47.10
2018-09-14T10:32:45.169Z,46.10
2018-09-14T10:35:29.317Z,44.40
2018-09-14T10:38:01.714Z,44.30
2018-09-14T10:40:35.104Z,44.90
2018-09-14T10:43:05.882Z,44.70
2018-09-14T10:45:37.195Z,44.80
2018-09-14T10:48:07.196Z,43.00
2018-09-14T10:50:37.963Z,45.40
2018-09-14T10:53:13.407Z,46.40
2018-09-14T10:55:47.654Z,45.80
2018-09-14T10:58:27.057Z,44.30
2018-09-14T11:00:57.379Z,43.90
2018-09-14T11:03:27.878Z,43.20
2018-09-14T11:06:08.229Z,42.90
2018-09-14T11:08:38.209Z,42.20
2018-09-14T11:11:09.022Z,43.30
2018-09-14T11:13:42.653Z,44.20
2018-09-14T11:16:13.265Z,44.10
2018-09-14T11:18:46.513Z,43.60
2018-09-14T11:21:15.720Z,41.90
2018-09-14T11:23:46.382Z,42.40
2018-09-14T11:26:16.661Z,42.90
2018-09-14T11:28:50.885Z,42.40
2018-09-14T11:31:30.832Z,43.00
2018-09-14T11:34:02.308Z,42.00
2018-09-14T11:36:32.260Z,42.20
2018-09-14T11:39:05.979Z,41.00
2018-09-14T11:41:36.500Z,41.40
2018-09-14T11:44:08.263Z,41.60
2018-09-14T11:46:37.697Z,41.50
2018-09-14T11:49:07.253Z,42.50
2018-09-14T11:51:37.652Z,42.70
2018-09-14T11:54:09.430Z,41.70
2018-09-14T11:56:40.276Z,42.30
2018-09-14T11:59:12.737Z,41.30
2018-09-14T12:01:45.159Z,41.00
2018-09-14T12:04:24.125Z,41.50
2018-09-14T12:06:54.747Z,41.90
2018-09-14T12:09:31.261Z,41.10
2018-09-14T12:12:01.816Z,41.10
2018-09-14T12:14:34.776Z,41.80
2018-09-14T12:17:05.390Z,41.50
2018-09-14T12:19:36.224Z,41.90
2018-09-14T12:22:06.918Z,41.60
2018-09-14T12:24:39.425Z,41.60
2018-09-14T12:27:11.605Z,42.10
2018-09-14T12:29:45.341Z,41.20
2018-09-14T12:32:15.556Z,41.60
2018-09-14T12:34:45.457Z,40.80
2018-09-14T12:37:15.223Z,41.40
2018-09-14T12:39:53.105Z,41.80
2018-09-14T12:42:24.503Z,41.50
2018-09-14T12:44:54.356Z,43.50
2018-09-14T12:47:24.384Z,43.30
2018-09-14T12:49:54.722Z,42.70
2018-09-14T12:52:24.723Z,42.50
2018-09-14T12:54:55.240Z,41.50
2018-09-14T12:57:26.810Z,41.10
2018-09-14T12:59:56.688Z,40.50
2018-09-14T13:02:28.653Z,40.00
2018-09-14T13:04:58.604Z,39.80
2018-09-14T13:07:29.607Z,39.30
2018-09-14T13:10:00.068Z,39.70
2018-09-14T13:12:29.836Z,39.20
2018-09-14T13:15:02.732Z,37.80
2018-09-14T13:17:32.173Z,39.80
2018-09-14T13:20:03.217Z,39.10
2018-09-14T13:22:33.378Z,41.20
2018-09-14T13:25:03.948Z,42.20
2018-09-14T13:27:35.841Z,42.30
2018-09-14T13:30:07.064Z,42.40
2018-09-14T13:32:41.496Z,41.70
2018-09-14T13:35:12.331Z,41.90
2018-09-14T13:37:42.849Z,41.50
2018-09-14T13:40:14.017Z,41.60
2018-09-14T13:42:47.514Z,41.20
2018-09-14T13:45:20.827Z,40.70
2018-09-14T13:47:51.878Z,40.40
2018-09-14T13:50:28.435Z,39.50
2018-09-14T13:52:58.033Z,39.70
2018-09-14T13:55:27.629Z,39.50
2018-09-14T13:57:57.792Z,38.50
2018-09-14T14:00:27.564Z,39.60
2018-09-14T14:02:58.456Z,39.10
2018-09-14T14:05:30.198Z,39.50
2018-09-14T14:08:04.802Z,39.50
2018-09-14T14:10:34.738Z,38.80
2018-09-14T14:13:05.288Z,39.30
2018-09-14T14:15:36.148Z,38.60
2018-09-14T14:18:05.824Z,38.90
2018-09-14T14:20:35.476Z,39.10
2018-09-14T14:23:05.076Z,38.50
2018-09-14T14:25:35.591Z,37.60
2018-09-14T14:28:06.849Z,37.40
2018-09-14T14:30:39.922Z,37.70
2018-09-14T14:33:10.207Z,37.90
2018-09-14T14:35:41.737Z,37.90
2018-09-14T14:38:17.574Z,38.30
2018-09-14T14:40:46.915Z,38.20
2018-09-14T14:43:16.176Z,38.40
2018-09-14T14:45:45.781Z,40.00
2018-09-14T14:48:15.189Z,40.80
2018-09-14T14:50:46.170Z,41.90
2018-09-14T14:53:17.494Z,42.90
2018-09-14T14:55:47.321Z,43.60
2018-09-14T14:58:18.874Z,43.10
2018-09-14T15:00:50.241Z,42.20
2018-09-14T15:03:21.238Z,41.90
2018-09-14T15:05:51.865Z,42.30
2018-09-14T15:08:22.482Z,43.00
2018-09-14T15:10:52.783Z,42.80
2018-09-14T15:13:22.408Z,42.80
2018-09-14T15:15:55.445Z,42.80
2018-09-14T15:18:25.212Z,42.80
2018-09-14T15:20:54.602Z,42.70
2018-09-14T15:23:26.897Z,42.80
2018-09-14T15:25:57.253Z,42.90
2018-09-14T15:28:29.434Z,43.10
2018-09-14T15:31:01.568Z,43.20
2018-09-14T15:33:33.832Z,45.00
2018-09-14T15:36:06.108Z,43.80
2018-09-14T15:38:37.503Z,44.30
2018-09-14T15:41:06.760Z,44.60
2018-09-14T15:43:42.359Z,44.90
2018-09-14T15:46:20.123Z,45.10
2018-09-14T15:48:54.536Z,44.80
2018-09-14T15:51:30.362Z,45.00
2018-09-14T15:54:01.848Z,44.50
2018-09-14T15:56:36.237Z,44.40
2018-09-14T16:01:51.914Z,43.40
2018-09-14T16:04:21.617Z,43.60
2018-09-14T16:06:53.818Z,44.20
2018-09-14T16:09:24.440Z,44.00
2018-09-14T16:11:57.212Z,43.30
2018-09-14T16:14:27.097Z,42.70
2018-09-14T16:17:00.325Z,43.50
2018-09-14T16:19:30.872Z,43.20
2018-09-14T16:22:01.642Z,42.30
2018-09-14T16:24:31.834Z,42.70
2018-09-14T16:27:01.294Z,41.60
2018-09-14T16:29:32.222Z,42.20
2018-09-14T16:32:01.789Z,42.10
2018-09-14T16:34:31.261Z,41.80
2018-09-14T16:37:01.696Z,42.00
2018-09-14T16:39:32.021Z,42.90
2018-09-14T16:42:02.521Z,42.60
2018-09-14T16:44:33.160Z,43.00
2018-09-14T16:47:05.765Z,43.00
2018-09-14T16:49:40.236Z,42.90
2018-09-14T16:52:09.469Z,43.40
2018-09-14T16:54:38.592Z,44.50
2018-09-14T16:57:07.864Z,43.20
2018-09-14T16:59:39.584Z,43.80
2018-09-14T17:02:12.230Z,44.10
2018-09-14T17:04:44.342Z,44.00
2018-09-14T17:07:16.424Z,44.30
2018-09-14T17:09:45.921Z,43.80
2018-09-14T17:12:16.180Z,44.10
2018-09-14T17:14:45.993Z,44.20
2018-09-14T17:17:15.309Z,44.30
2018-09-14T17:19:45.599Z,44.50
2018-09-14T17:22:19.224Z,44.40
2018-09-14T17:24:50.049Z,44.50
2018-09-14T17:27:24.888Z,44.40
2018-09-14T17:29:55.175Z,44.60
2018-09-14T17:32:25.500Z,43.80
2018-09-14T17:34:57.023Z,44.00
2018-09-14T17:37:28.648Z,43.40
2018-09-14T17:39:58.775Z,43.80
2018-09-14T17:42:29.277Z,43.40
2018-09-14T17:45:01.372Z,43.80
2018-09-14T17:47:37.236Z,43.90
2018-09-14T17:50:11.060Z,43.10
2018-09-14T17:52:42.363Z,43.80
2018-09-14T17:55:12.966Z,43.50
2018-09-14T17:57:43.542Z,43.20
2018-09-14T18:00:21.378Z,43.50
2018-09-14T18:02:50.537Z,43.90
2018-09-14T18:05:19.934Z,44.60
2018-09-14T18:07:49.637Z,44.80
2018-09-14T18:10:22.800Z,44.50
2018-09-14T18:12:54.179Z,44.60
2018-09-14T18:15:25.561Z,44.60
2018-09-14T18:17:57.515Z,45.30
2018-09-14T18:20:29.827Z,45.90
2018-09-14T18:23:00.736Z,46.10
2018-09-14T18:25:30.324Z,47.00
2018-09-14T18:28:00.434Z,46.60
2018-09-14T18:30:30.206Z,47.00
2018-09-14T18:32:59.341Z,47.10
2018-09-14T18:35:31.005Z,47.30
2018-09-14T18:38:01.236Z,47.50
2018-09-14T18:40:31.891Z,47.60
2018-09-14T18:43:02.160Z,47.80
2018-09-14T18:45:35.935Z,48.00
2018-09-14T18:48:10.053Z,48.70
2018-09-14T18:50:40.136Z,48.70
2018-09-14T18:53:10.022Z,49.10
2018-09-14T18:55:56.665Z,49.70
2018-09-14T18:58:30.008Z,50.20
2018-09-14T19:01:00.125Z,50.60
2018-09-14T19:03:31.524Z,51.00
2018-09-14T19:06:01.388Z,50.00
2018-09-14T19:08:32.888Z,50.10
2018-09-14T19:11:02.791Z,50.70
2018-09-14T19:13:36.574Z,51.00
2018-09-14T19:16:08.034Z,51.70
2018-09-14T19:18:39.267Z,52.20
2018-09-14T19:21:09.382Z,52.00
2018-09-14T19:23:42.136Z,51.60
2018-09-14T19:26:17.995Z,52.00
2018-09-14T19:28:49.826Z,52.00
2018-09-14T19:31:21.393Z,51.50
2018-09-14T19:34:01.986Z,52.40
2018-09-14T19:36:33.312Z,53.10
2018-09-14T19:39:03.259Z,53.20
2018-09-14T19:41:33.748Z,52.80
2018-09-14T19:44:05.965Z,53.20
2018-09-14T19:46:35.729Z,53.10
2018-09-14T19:49:05.442Z,53.10
2018-09-14T19:51:38.526Z,53.30
2018-09-14T19:54:09.785Z,53.30
2018-09-14T19:56:39.759Z,53.40
2018-09-14T19:59:10.423Z,53.30
2018-09-14T20:01:44.606Z,54.30
2018-09-14T20:04:14.252Z,53.60
2018-09-14T20:09:22.385Z,53.20
2018-09-14T20:11:52.419Z,52.60
2018-09-14T20:14:29.397Z,53.10
2018-09-14T20:17:00.149Z,54.40
2018-09-14T20:19:30.569Z,54.70
2018-09-14T20:22:04.623Z,53.20
2018-09-14T20:24:34.616Z,53.70
2018-09-14T20:27:11.220Z,54.40
2018-09-14T20:29:43.655Z,55.40
2018-09-14T20:32:13.455Z,55.30
2018-09-14T20:34:47.408Z,54.60
2018-09-14T20:37:20.425Z,55.00
2018-09-14T20:39:53.544Z,55.10
2018-09-14T20:42:24.849Z,54.70
2018-09-14T20:44:57.363Z,55.80
2018-09-14T20:47:27.894Z,55.40
2018-09-14T20:49:57.588Z,55.10
2018-09-14T20:52:28.596Z,54.70
2018-09-14T20:54:58.240Z,54.80
2018-09-14T20:57:27.557Z,55.10
2018-09-14T20:59:57.900Z,55.10
2018-09-14T21:02:28.435Z,54.70
2018-09-14T21:04:59.340Z,54.60
2018-09-14T21:07:31.516Z,54.70
2018-09-14T21:10:03.204Z,55.00
2018-09-14T21:12:32.564Z,54.80
2018-09-14T21:15:01.841Z,54.50
2018-09-14T21:17:33.667Z,54.30
2018-09-14T21:20:06.579Z,54.10
2018-09-14T21:22:36.275Z,53.80
2018-09-14T21:25:06.797Z,53.90
2018-09-14T21:27:38.554Z,53.90
2018-09-14T21:30:16.142Z,54.00
2018-09-14T21:32:47.750Z,53.90
2018-09-14T21:35:17.875Z,54.10
2018-09-14T21:37:50.552Z,54.50
2018-09-14T21:40:23.359Z,54.30
2018-09-14T21:43:11.443Z,54.30
2018-09-14T21:45:45.281Z,54.40
2018-09-14T21:48:17.646Z,54.60
2018-09-14T21:50:49.189Z,54.50
2018-09-14T21:53:19.026Z,55.10
2018-09-14T21:55:51.824Z,54.70
2018-09-14T21:58:21.898Z,54.40
2018-09-14T22:00:57.997Z,54.30
2018-09-14T22:03:31.724Z,54.10
2018-09-14T22:06:02.385Z,54.10
2018-09-14T22:08:31.558Z,54.30
2018-09-14T22:11:01.621Z,54.30
2018-09-14T22:13:32.485Z,54.50
2018-09-14T22:16:01.737Z,54.60
2018-09-14T22:18:31.287Z,54.40
2018-09-14T22:21:04.192Z,54.30
2018-09-14T22:23:36.236Z,54.40
2018-09-14T22:26:06.376Z,54.70
2018-09-14T22:28:36.129Z,55.00
2018-09-14T22:31:06.199Z,54.80
2018-09-14T22:33:35.486Z,55.20
2018-09-14T22:36:05.374Z,55.10
2018-09-14T22:38:35.192Z,54.80
2018-09-14T22:41:04.504Z,54.80
2018-09-14T22:43:33.640Z,54.90
2018-09-14T22:46:03.197Z,54.90
2018-09-14T22:48:32.668Z,54.80
2018-09-14T22:51:02.275Z,54.80
2018-09-14T22:53:34.476Z,55.10
2018-09-14T22:56:07.346Z,55.00
2018-09-14T22:58:37.469Z,54.90
2018-09-14T23:01:12.309Z,55.40
2018-09-14T23:03:46.064Z,54.80
2018-09-14T23:06:18.462Z,54.90
2018-09-14T23:08:47.621Z,55.50
2018-09-14T23:11:20.359Z,53.70
2018-09-14T23:13:49.565Z,55.20
2018-09-14T23:16:19.834Z,55.20
2018-09-14T23:18:50.522Z,55.20
2018-09-14T23:21:20.914Z,56.10
2018-09-14T23:27:27.031Z,55.40
2018-09-14T23:29:56.354Z,55.80
2018-09-14T23:32:25.780Z,56.10
2018-09-14T23:34:55.461Z,56.90
2018-09-14T23:37:26.457Z,56.20
2018-09-14T23:39:56.032Z,56.20
2018-09-14T23:43:55.676Z,56.10
2018-09-14T23:46:24.781Z,56.00
2018-09-14T23:48:57.432Z,56.10
2018-09-14T23:51:27.887Z,57.40
2018-09-14T23:53:57.536Z,56.20
2018-09-14T23:56:26.620Z,56.40
2018-09-14T23:58:56.645Z,56.50
